Time;durP1;ratioP1;P1;durP2;ratioP2;P2;SDS_P1;SDS_P2;PMS_P1;PMS_P2;Temp;Humidity;BMP_temperature;BMP_pressure;BME280_temperature;BME280_humidity;BME280_pressure;Samples;Min_cycle;Max_cycle;Signal;HPM_P1;HPM_P2
2023/03/17 00:01:59;;;;;;;;;;;9.80;99.90;;;;;;6312368;22;19922;-89
2023/03/17 00:04:33;;;;;;;;;;;9.70;99.90;;;;;;6307842;22;19907;-88
2023/03/17 00:07:04;;;;;;;;;;;9.80;99.90;;;;;;6307130;22;20308;-87
2023/03/17 00:09:32;;;;;;;;;;;9.70;99.90;;;;;;6306889;22;20316;-89
2023/03/17 00:14:59;;;;;;;;;;;9.70;99.90;;;;;;6303711;22;19983;-88
2023/03/17 00:18:03;;;;;;;;;;;9.50;99.90;;;;;;6274755;22;19942;-89
2023/03/17 00:21:03;;;;;;;;;;;9.00;99.90;;;;;;6276913;22;19907;-91
2023/03/17 00:23:34;;;;;;;;;;;9.60;99.90;;;;;;6276285;22;20316;-89
2023/03/17 00:26:03;;;;;;;;;;;8.90;99.90;;;;;;6319467;22;19922;-88
2023/03/17 00:28:32;;;;;;;;;;;9.70;99.90;;;;;;6285209;22;19948;-89
2023/03/17 00:33:33;;;;;;;;;;;9.30;99.90;;;;;;6332271;22;19926;-90
2023/03/17 00:42:34;;;;;;;;;;;9.60;99.90;;;;;;6319440;22;19917;-89
2023/03/17 00:45:29;;;;;;;;;;;9.20;99.90;;;;;;6334593;22;19919;-90
2023/03/17 00:47:58;;;;;;;;;;;9.10;99.90;;;;;;6320876;22;19967;-88
2023/03/17 00:50:32;;;;;;;;;;;9.60;99.90;;;;;;6337510;22;19919;-88
2023/03/17 00:55:31;;;;;;;;;;;9.30;99.90;;;;;;6338546;22;20014;-90
2023/03/17 00:57:57;;;;;;;;;;;9.60;99.90;;;;;;6340291;22;19902;-90
2023/03/17 01:00:28;;;;;;;;;;;9.60;99.90;;;;;;6340649;22;19930;-90
2023/03/17 01:02:57;;;;;;;;;;;9.50;99.90;;;;;;6340847;22;20237;-90
2023/03/17 01:05:24;;;;;;;;;;;9.50;99.90;;;;;;6339177;22;20385;-90
2023/03/17 01:07:52;;;;;;;;;;;9.50;99.90;;;;;;6341000;22;19902;-89
2023/03/17 01:10:25;;;;;;;;;;;10.00;99.90;;;;;;6340818;22;19907;-89
2023/03/17 01:12:57;;;;;;;;;;;10.30;99.90;;;;;;6340010;22;19907;-89
2023/03/17 01:15:27;;;;;;;;;;;9.50;99.90;;;;;;6339929;22;19909;-89
2023/03/17 01:17:56;;;;;;;;;;;9.60;99.90;;;;;;6340323;22;19903;-88
2023/03/17 01:20:34;;;;;;;;;;;9.90;99.90;;;;;;6340367;22;19907;-89
2023/03/17 01:23:02;;;;;;;;;;;9.80;99.90;;;;;;6320413;22;19903;-89
2023/03/17 01:25:28;;;;;;;;;;;9.50;99.90;;;;;;6339546;22;20307;-90
2023/03/17 01:27:59;;;;;;;;;;;9.60;99.90;;;;;;6341022;22;19903;-89
2023/03/17 01:30:30;;;;;;;;;;;9.40;99.90;;;;;;6340565;22;19911;-90
2023/03/17 01:32:59;;;;;;;;;;;9.40;99.90;;;;;;6339928;22;19903;-86
2023/03/17 01:35:31;;;;;;;;;;;10.10;99.90;;;;;;6340268;22;19906;-89
2023/03/17 01:37:59;;;;;;;;;;;9.40;99.90;;;;;;6340582;22;19903;-89
2023/03/17 01:40:32;;;;;;;;;;;9.00;99.90;;;;;;6339732;22;19903;-90
2023/03/17 01:43:09;;;;;;;;;;;9.40;99.90;;;;;;6340435;22;19903;-88
2023/03/17 01:46:01;;;;;;;;;;;9.50;99.90;;;;;;6339295;22;20002;-89
2023/03/17 01:48:36;;;;;;;;;;;9.40;99.90;;;;;;6340249;22;19906;-89
2023/03/17 01:51:05;;;;;;;;;;;9.40;99.90;;;;;;6339939;22;19915;-89
2023/03/17 01:53:37;;;;;;;;;;;9.40;99.90;;;;;;6338917;22;19931;-90
2023/03/17 01:56:06;;;;;;;;;;;9.40;99.90;;;;;;6340583;22;19977;-89
2023/03/17 01:58:33;;;;;;;;;;;8.70;99.90;;;;;;6340138;22;19910;-90
2023/03/17 02:01:02;;;;;;;;;;;9.30;99.90;;;;;;6340136;22;19902;-89
2023/03/17 02:03:35;;;;;;;;;;;10.40;99.90;;;;;;6340292;22;19909;-89
2023/03/17 02:06:02;;;;;;;;;;;9.30;99.90;;;;;;6340079;22;20338;-88
2023/03/17 02:08:33;;;;;;;;;;;10.40;99.90;;;;;;6339594;22;19903;-89
2023/03/17 02:11:03;;;;;;;;;;;9.30;99.90;;;;;;6340412;22;19934;-89
2023/03/17 02:13:30;;;;;;;;;;;9.20;99.90;;;;;;6340186;22;19945;-90
2023/03/17 02:16:03;;;;;;;;;;;9.20;99.90;;;;;;6339730;22;20308;-89
2023/03/17 02:18:31;;;;;;;;;;;9.90;99.90;;;;;;6325243;22;19925;-88
2023/03/17 02:21:31;;;;;;;;;;;10.00;99.90;;;;;;6340654;22;19914;-88
2023/03/17 02:24:01;;;;;;;;;;;9.00;99.90;;;;;;6338124;22;20846;-88
2023/03/17 02:28:59;;;;;;;;;;;9.10;99.90;;;;;;6335243;22;19927;-88
2023/03/17 02:34:02;;;;;;;;;;;9.20;99.90;;;;;;6334464;22;19925;-88
2023/03/17 02:36:31;;;;;;;;;;;9.20;99.90;;;;;;6333120;22;19919;-88
2023/03/17 02:39:01;;;;;;;;;;;9.10;99.90;;;;;;6337389;22;19923;-89
2023/03/17 02:43:57;;;;;;;;;;;9.20;99.90;;;;;;6338166;22;19918;-87
2023/03/17 02:46:25;;;;;;;;;;;9.20;99.90;;;;;;6339666;22;19903;-88
2023/03/17 02:48:51;;;;;;;;;;;10.20;99.90;;;;;;6339665;22;19906;-87
2023/03/17 02:51:19;;;;;;;;;;;9.10;99.90;;;;;;6339090;22;19910;-88
2023/03/17 02:53:50;;;;;;;;;;;9.20;99.90;;;;;;6339256;22;20315;-88
2023/03/17 02:56:18;;;;;;;;;;;9.80;99.90;;;;;;6340352;22;19903;-89
2023/03/17 02:58:44;;;;;;;;;;;9.60;99.90;;;;;;6337168;22;19928;-88
2023/03/17 03:01:17;;;;;;;;;;;10.10;99.90;;;;;;6339798;22;19978;-88
2023/03/17 03:03:45;;;;;;;;;;;9.20;99.90;;;;;;6339038;22;20010;-87
2023/03/17 03:06:16;;;;;;;;;;;9.20;99.90;;;;;;6339879;22;19909;-89
2023/03/17 03:08:44;;;;;;;;;;;9.20;99.90;;;;;;6339301;22;20352;-88
2023/03/17 03:11:13;;;;;;;;;;;10.00;99.90;;;;;;6338938;22;19938;-88
2023/03/17 03:19:08;;;;;;;;;;;9.20;99.90;;;;;;6335491;22;19967;-89
2023/03/17 03:24:06;;;;;;;;;;;9.20;99.90;;;;;;6338598;22;20206;-90
2023/03/17 03:26:31;;;;;;;;;;;9.20;99.90;;;;;;6338390;22;19907;-90
2023/03/17 03:29:02;;;;;;;;;;;10.00;99.90;;;;;;6339373;22;19909;-89
2023/03/17 03:31:28;;;;;;;;;;;9.20;99.90;;;;;;6339162;22;19914;-89
2023/03/17 03:33:55;;;;;;;;;;;8.40;99.90;;;;;;6339125;22;19909;-89
2023/03/17 03:36:26;;;;;;;;;;;9.20;99.90;;;;;;6339811;22;20268;-89
2023/03/17 03:38:54;;;;;;;;;;;9.20;99.90;;;;;;6339006;22;19903;-90
2023/03/17 03:41:26;;;;;;;;;;;9.50;99.90;;;;;;6339986;22;19903;-89
2023/03/17 03:43:57;;;;;;;;;;;9.30;99.90;;;;;;6339922;22;19903;-90
2023/03/17 03:46:26;;;;;;;;;;;9.30;99.90;;;;;;6339027;22;19925;-89
2023/03/17 03:48:54;;;;;;;;;;;10.30;99.90;;;;;;6339736;22;19903;-90
2023/03/17 03:54:13;;;;;;;;;;;9.30;99.90;;;;;;6329917;22;19926;-89
2023/03/17 03:59:16;;;;;;;;;;;8.90;99.90;;;;;;6338411;22;19919;-90
2023/03/17 04:04:16;;;;;;;;;;;9.30;99.90;;;;;;6336798;22;19918;-90
2023/03/17 04:06:41;;;;;;;;;;;9.00;99.90;;;;;;6338918;22;19913;-89
2023/03/17 04:09:08;;;;;;;;;;;10.20;99.90;;;;;;6339101;22;19918;-89
2023/03/17 04:11:33;;;;;;;;;;;9.40;99.90;;;;;;6339644;22;20325;-89
2023/03/17 04:14:02;;;;;;;;;;;10.40;99.90;;;;;;6339123;22;19914;-90
2023/03/17 04:16:40;;;;;;;;;;;9.50;99.90;;;;;;6339215;22;19979;-89
2023/03/17 04:19:05;;;;;;;;;;;9.10;99.90;;;;;;6339670;22;19909;-90
2023/03/17 04:21:48;;;;;;;;;;;10.30;99.90;;;;;;6336899;22;19930;-89
2023/03/17 04:24:17;;;;;;;;;;;9.50;99.90;;;;;;6339159;22;19902;-89
2023/03/17 04:26:45;;;;;;;;;;;9.50;99.90;;;;;;6339239;22;19955;-89
2023/03/17 04:29:14;;;;;;;;;;;10.30;99.90;;;;;;6339355;22;19907;-90
2023/03/17 04:31:43;;;;;;;;;;;9.40;99.90;;;;;;6339453;22;19919;-89
2023/03/17 04:34:40;;;;;;;;;;;8.80;99.90;;;;;;6339732;22;19902;-89
2023/03/17 04:37:14;;;;;;;;;;;10.50;99.90;;;;;;6272916;22;19903;-90
2023/03/17 04:39:43;;;;;;;;;;;9.60;99.90;;;;;;6339496;22;20341;-90
2023/03/17 04:42:10;;;;;;;;;;;9.60;99.90;;;;;;6339066;22;20031;-89
2023/03/17 04:44:39;;;;;;;;;;;9.50;99.90;;;;;;6339835;22;19907;-89
2023/03/17 04:47:04;;;;;;;;;;;9.50;99.90;;;;;;6339222;22;19969;-89
2023/03/17 04:49:32;;;;;;;;;;;9.50;99.90;;;;;;6336836;22;19934;-89
2023/03/17 04:54:35;;;;;;;;;;;9.60;99.90;;;;;;6334556;22;19923;-89
2023/03/17 04:59:35;;;;;;;;;;;9.60;99.90;;;;;;6337138;22;19972;-88
2023/03/17 05:04:29;;;;;;;;;;;9.60;99.90;;;;;;6337288;22;19925;-88
2023/03/17 05:07:00;;;;;;;;;;;9.20;99.90;;;;;;6338643;22;19930;-89
2023/03/17 05:09:28;;;;;;;;;;;9.50;99.90;;;;;;6338600;22;19989;-88
2023/03/17 05:11:54;;;;;;;;;;;9.50;99.90;;;;;;6338208;22;19915;-88
2023/03/17 05:14:22;;;;;;;;;;;10.80;99.90;;;;;;6339059;22;19903;-89
2023/03/17 05:16:50;;;;;;;;;;;10.50;99.90;;;;;;6339121;22;19903;-87
2023/03/17 05:19:17;;;;;;;;;;;10.50;99.90;;;;;;6338214;22;20303;-88
2023/03/17 05:21:53;;;;;;;;;;;10.20;99.90;;;;;;6339092;22;19902;-88
2023/03/17 05:24:21;;;;;;;;;;;9.50;99.90;;;;;;6339078;22;19907;-87
2023/03/17 05:26:49;;;;;;;;;;;9.50;99.90;;;;;;6340777;22;19914;-87
2023/03/17 05:29:17;;;;;;;;;;;10.50;99.90;;;;;;6340723;22;19929;-87
2023/03/17 05:31:54;;;;;;;;;;;9.30;99.90;;;;;;6339699;22;20323;-88
2023/03/17 05:34:20;;;;;;;;;;;9.30;99.90;;;;;;6340983;22;19902;-88
2023/03/17 05:36:49;;;;;;;;;;;8.70;99.90;;;;;;6340675;22;19903;-88
2023/03/17 05:39:17;;;;;;;;;;;10.30;99.90;;;;;;6339673;22;20223;-88
2023/03/17 05:41:46;;;;;;;;;;;9.80;99.90;;;;;;6340736;22;19902;-88
2023/03/17 05:46:52;;;;;;;;;;;9.40;99.90;;;;;;6338670;22;19919;-90
2023/03/17 05:49:23;;;;;;;;;;;9.30;99.90;;;;;;6340908;22;19952;-90
2023/03/17 05:51:52;;;;;;;;;;;9.40;99.90;;;;;;6340652;22;19910;-89
2023/03/17 05:56:51;;;;;;;;;;;9.40;99.90;;;;;;6336775;22;19927;-90
2023/03/17 06:01:51;;;;;;;;;;;9.30;99.90;;;;;;6339361;22;19960;-89
2023/03/17 06:04:16;;;;;;;;;;;9.20;99.90;;;;;;6339014;22;19929;-88
2023/03/17 06:06:51;;;;;;;;;;;9.30;99.90;;;;;;6337849;22;20176;-89
2023/03/17 06:11:46;;;;;;;;;;;8.90;99.90;;;;;;6337214;22;19922;-89
2023/03/17 06:16:50;;;;;;;;;;;8.70;99.90;;;;;;6338280;22;19922;-87
2023/03/17 06:19:16;;;;;;;;;;;8.90;99.90;;;;;;6338736;22;19918;-88
2023/03/17 06:21:44;;;;;;;;;;;10.00;99.90;;;;;;6338947;22;19914;-87
2023/03/17 06:24:15;;;;;;;;;;;8.80;99.90;;;;;;6339953;22;19903;-88
2023/03/17 06:26:42;;;;;;;;;;;8.80;99.90;;;;;;6340313;22;19977;-87
2023/03/17 06:29:09;;;;;;;;;;;10.20;99.90;;;;;;6339868;22;19903;-88
2023/03/17 06:31:41;;;;;;;;;;;10.30;99.90;;;;;;6257935;22;19997;-87
2023/03/17 06:34:07;;;;;;;;;;;9.20;99.90;;;;;;6336870;22;19906;-87
2023/03/17 06:50:26;;;;;;;;;;;9.30;99.90;;;;;;6342570;22;19919;-88
2023/03/17 06:58:14;;;;;;;;;;;9.40;99.90;;;;;;6334442;22;19938;-89
2023/03/17 07:09:36;;;;;;;;;;;9.00;99.90;;;;;;6323302;22;20036;-86
2023/03/17 07:12:04;;;;;;;;;;;9.40;99.90;;;;;;6339073;22;20208;-89
2023/03/17 07:22:17;;;;;;;;;;;9.50;99.90;;;;;;6335889;22;19929;-89
2023/03/17 07:24:47;;;;;;;;;;;9.50;99.90;;;;;;6331362;22;19919;-91
2023/03/17 07:46:06;;;;;;;;;;;8.80;99.90;;;;;;6184051;23;19908;-88
2023/03/17 07:48:45;;;;;;;;;;;;;;;;;;;;;
2023/03/17 07:51:43;;;;;;;;;;;;;;;;;;;;;
2023/03/17 08:36:19;;;;;;;;;;;10.60;99.90;;;;;;6312111;22;19971;-90
2023/03/17 08:50:12;;;;;;;;;;;10.30;99.90;;;;;;6298931;22;19926;-89
2023/03/17 08:52:40;;;;;;;;;;;10.70;99.90;;;;;;6341120;22;19960;-90
2023/03/17 08:55:11;;;;;;;;;;;10.70;99.90;;;;;;6286041;22;19902;-90
2023/03/17 08:57:39;;;;;;;;;;;10.80;99.90;;;;;;6341411;22;19925;-92
2023/03/17 09:00:19;;;;;;;;;;;;;;;;;;;;;
2023/03/17 09:02:45;;;;;;;;;;;10.50;99.90;;;;;;6312946;22;19989;-89
2023/03/17 09:05:18;;;;;;;;;;;11.70;99.90;;;;;;6339751;22;19923;-90
2023/03/17 09:07:52;;;;;;;;;;;10.90;99.90;;;;;;6340181;22;19930;-89
2023/03/17 09:10:24;;;;;;;;;;;11.00;99.90;;;;;;6339742;22;19907;-87
2023/03/17 09:12:50;;;;;;;;;;;10.30;99.90;;;;;;6340808;22;19907;-88
2023/03/17 09:15:22;;;;;;;;;;;12.00;99.90;;;;;;6340547;22;19902;-86
2023/03/17 09:17:53;;;;;;;;;;;11.10;99.90;;;;;;6339831;22;19906;-86
2023/03/17 09:20:22;;;;;;;;;;;10.50;99.90;;;;;;6340139;22;19913;-86
2023/03/17 09:22:57;;;;;;;;;;;11.90;99.90;;;;;;6340356;22;19906;-87
2023/03/17 09:25:28;;;;;;;;;;;11.20;99.90;;;;;;6338253;22;19910;-88
2023/03/17 09:28:00;;;;;;;;;;;11.20;99.90;;;;;;6340332;22;20286;-89
2023/03/17 09:30:31;;;;;;;;;;;10.70;99.90;;;;;;6332274;22;20228;-88
2023/03/17 09:33:06;;;;;;;;;;;11.10;99.90;;;;;;6340126;22;19929;-88
2023/03/17 09:35:37;;;;;;;;;;;11.60;99.90;;;;;;6338093;22;19914;-88
2023/03/17 09:38:08;;;;;;;;;;;10.80;99.90;;;;;;6333779;22;19930;-86
2023/03/17 09:40:42;;;;;;;;;;;11.90;99.90;;;;;;6328032;22;19980;-88
2023/03/17 09:45:49;;;;;;;;;;;11.40;99.90;;;;;;6335893;22;19922;-87
2023/03/17 09:48:49;;;;;;;;;;;11.40;99.90;;;;;;6339942;22;19903;-87
2023/03/17 09:51:18;;;;;;;;;;;11.50;99.90;;;;;;6340021;22;20285;-88
2023/03/17 09:54:01;;;;;;;;;;;11.60;99.90;;;;;;6340300;22;19907;-87
2023/03/17 09:56:31;;;;;;;;;;;11.40;99.90;;;;;;6339636;22;20369;-87
2023/03/17 09:58:59;;;;;;;;;;;11.60;99.90;;;;;;6340006;22;19934;-88
2023/03/17 10:01:25;;;;;;;;;;;11.50;99.90;;;;;;6339676;22;19948;-89
2023/03/17 10:03:57;;;;;;;;;;;12.70;99.90;;;;;;6340557;22;19902;-88
2023/03/17 10:06:35;;;;;;;;;;;11.70;99.90;;;;;;6339692;22;19906;-89
2023/03/17 10:09:25;;;;;;;;;;;11.70;99.90;;;;;;6339985;22;19989;-91
2023/03/17 10:12:28;;;;;;;;;;;11.80;99.90;;;;;;6339716;22;20319;-88
2023/03/17 10:14:59;;;;;;;;;;;11.90;99.90;;;;;;6340283;22;20157;-90
2023/03/17 10:17:33;;;;;;;;;;;12.50;99.90;;;;;;6340214;22;19907;-89
2023/03/17 10:20:34;;;;;;;;;;;11.80;99.90;;;;;;6339823;22;19903;-89
2023/03/17 10:23:05;;;;;;;;;;;12.20;99.90;;;;;;6331966;22;19914;-88
2023/03/17 10:25:34;;;;;;;;;;;12.20;99.90;;;;;;6340144;22;19902;-89
2023/03/17 10:28:37;;;;;;;;;;;12.60;99.90;;;;;;6339715;22;20276;-88
2023/03/17 10:31:13;;;;;;;;;;;12.10;99.90;;;;;;6340313;22;20315;-88
2023/03/17 10:33:48;;;;;;;;;;;12.00;99.90;;;;;;6335433;22;19903;-88
2023/03/17 10:36:47;;;;;;;;;;;12.00;99.90;;;;;;6329918;22;19963;-88
2023/03/17 10:39:20;;;;;;;;;;;12.00;99.90;;;;;;6338463;22;19919;-89
2023/03/17 10:41:57;;;;;;;;;;;11.40;99.90;;;;;;6338256;22;19902;-88
2023/03/17 10:44:50;;;;;;;;;;;12.10;99.90;;;;;;6339800;22;19982;-89
2023/03/17 10:47:21;;;;;;;;;;;12.10;99.90;;;;;;6329828;22;19975;-89
2023/03/17 10:53:02;;;;;;;;;;;11.90;99.90;;;;;;6338393;22;19925;-89
2023/03/17 10:55:53;;;;;;;;;;;12.20;99.90;;;;;;6337978;22;19942;-90
2023/03/17 11:03:56;;;;;;;;;;;12.20;99.90;;;;;;6337295;22;19968;-88
2023/03/17 11:11:46;;;;;;;;;;;12.20;99.90;;;;;;6338567;22;19918;-88
2023/03/17 11:14:13;;;;;;;;;;;12.20;99.90;;;;;;6339762;22;19902;-88
2023/03/17 11:17:12;;;;;;;;;;;12.30;99.90;;;;;;6338805;22;19925;-90
2023/03/17 11:20:11;;;;;;;;;;;12.20;99.90;;;;;;6336209;22;19913;-89
2023/03/17 11:22:46;;;;;;;;;;;12.30;99.90;;;;;;6337657;22;19913;-90
2023/03/17 11:25:18;;;;;;;;;;;12.30;99.90;;;;;;6337766;22;19903;-91
2023/03/17 11:28:15;;;;;;;;;;;12.50;99.90;;;;;;6337022;22;20311;-90
2023/03/17 11:33:28;;;;;;;;;;;11.90;99.90;;;;;;6335236;22;19918;-89
2023/03/17 11:35:54;;;;;;;;;;;12.50;99.90;;;;;;6256548;22;20246;-90
2023/03/17 11:47:52;;;;;;;;;;;12.60;99.90;;;;;;6338879;22;19909;-89
2023/03/17 11:50:36;;;;;;;;;;;11.50;99.90;;;;;;6339638;22;19903;-89
2023/03/17 12:02:56;;;;;;;;;;;12.90;99.90;;;;;;6335573;22;20313;-90
2023/03/17 12:05:23;;;;;;;;;;;12.90;99.90;;;;;;6315636;22;19933;-89
2023/03/17 12:08:00;;;;;;;;;;;13.00;99.90;;;;;;6336984;22;20395;-88
2023/03/17 12:10:36;;;;;;;;;;;13.10;99.90;;;;;;6337352;22;19999;-89
2023/03/17 12:13:38;;;;;;;;;;;12.90;99.90;;;;;;6337743;22;19907;-89
2023/03/17 12:22:08;;;;;;;;;;;13.20;99.90;;;;;;6333128;22;19926;-88
2023/03/17 12:38:34;;;;;;;;;;;13.30;99.90;;;;;;6337368;22;20067;-89
2023/03/17 12:41:09;;;;;;;;;;;12.70;99.90;;;;;;6211296;22;19962;-89
2023/03/17 12:43:40;;;;;;;;;;;13.30;99.90;;;;;;6337388;22;19985;-91
2023/03/17 12:46:40;;;;;;;;;;;13.30;99.90;;;;;;6338143;22;20311;-90
2023/03/17 12:49:39;;;;;;;;;;;13.30;99.90;;;;;;6337588;22;19973;-90
2023/03/17 12:52:36;;;;;;;;;;;14.10;99.90;;;;;;6340116;22;19938;-90
2023/03/17 12:55:03;;;;;;;;;;;13.40;99.90;;;;;;6338949;22;19926;-90
2023/03/17 12:57:58;;;;;;;;;;;13.10;99.90;;;;;;6337759;22;20260;-91
2023/03/17 13:00:32;;;;;;;;;;;13.30;99.90;;;;;;6266725;22;19918;-91
2023/03/17 13:06:15;;;;;;;;;;;13.40;99.90;;;;;;6339369;22;19948;-89
2023/03/17 13:08:44;;;;;;;;;;;13.50;99.90;;;;;;6338568;22;20290;-88
2023/03/17 13:11:14;;;;;;;;;;;13.00;99.90;;;;;;6338038;22;19915;-88
2023/03/17 13:13:43;;;;;;;;;;;13.60;99.90;;;;;;6338934;22;19913;-88
2023/03/17 13:16:25;;;;;;;;;;;13.60;99.90;;;;;;6338569;22;19914;-88
2023/03/17 13:19:27;;;;;;;;;;;12.90;99.90;;;;;;6339612;22;19934;-89
2023/03/17 13:22:02;;;;;;;;;;;13.80;99.90;;;;;;6339039;22;20300;-90
2023/03/17 13:24:58;;;;;;;;;;;14.30;99.90;;;;;;6339408;22;19903;-91
2023/03/17 13:27:30;;;;;;;;;;;13.60;99.90;;;;;;6339937;22;19969;-89
2023/03/17 13:29:59;;;;;;;;;;;13.90;99.90;;;;;;6338746;22;19903;-91
2023/03/17 15:14:38;;;;;;;;;;;15.40;99.90;;;;;;6324999;22;19993;-86
2023/03/17 15:26:00;;;;;;;;;;;;;;;;;;;;;
2023/03/17 17:56:57;;;;;;;;;;;14.30;99.90;;;;;;6338012;22;19926;-87
2023/03/17 17:59:28;;;;;;;;;;;14.30;99.90;;;;;;6338534;22;20252;-89
2023/03/17 18:01:59;;;;;;;;;;;14.60;99.90;;;;;;6337897;22;19903;-88
2023/03/17 18:04:24;;;;;;;;;;;14.30;99.90;;;;;;6337687;22;19906;-88
2023/03/17 18:06:50;;;;;;;;;;;14.70;99.90;;;;;;6338498;22;20382;-88
2023/03/17 18:09:17;;;;;;;;;;;14.30;99.90;;;;;;6336531;22;19902;-88
2023/03/17 18:11:42;;;;;;;;;;;14.20;99.90;;;;;;6338472;22;19972;-88
2023/03/17 18:14:08;;;;;;;;;;;14.90;99.90;;;;;;6336863;22;19907;-89
2023/03/17 18:16:34;;;;;;;;;;;14.20;99.90;;;;;;6337006;22;19917;-87
2023/03/17 18:19:01;;;;;;;;;;;14.10;99.90;;;;;;6338275;22;19902;-87
2023/03/17 18:21:27;;;;;;;;;;;15.00;99.90;;;;;;6338907;22;19902;-87
2023/03/17 18:23:54;;;;;;;;;;;13.20;99.90;;;;;;6339182;22;19947;-87
2023/03/17 18:26:20;;;;;;;;;;;14.20;99.90;;;;;;6341010;22;19903;-89
2023/03/17 18:28:54;;;;;;;;;;;14.20;99.90;;;;;;6338898;22;19906;-88
2023/03/17 18:31:32;;;;;;;;;;;14.20;99.90;;;;;;6338463;22;19952;-88
2023/03/17 18:34:02;;;;;;;;;;;14.30;99.90;;;;;;6339411;22;19903;-89
2023/03/17 18:36:28;;;;;;;;;;;14.90;99.90;;;;;;6338489;22;19948;-89
2023/03/17 18:38:54;;;;;;;;;;;14.40;99.90;;;;;;6338612;22;19910;-87
2023/03/17 18:41:20;;;;;;;;;;;14.50;99.90;;;;;;6337695;22;19914;-88
2023/03/17 18:43:45;;;;;;;;;;;14.10;99.90;;;;;;6337087;22;20622;-89
2023/03/17 18:46:15;;;;;;;;;;;15.00;99.90;;;;;;6338902;22;19985;-89
2023/03/17 18:48:40;;;;;;;;;;;14.20;99.90;;;;;;6338637;22;20197;-89
2023/03/17 18:51:09;;;;;;;;;;;14.30;99.90;;;;;;6310379;22;20417;-89
2023/03/17 18:53:35;;;;;;;;;;;13.60;99.90;;;;;;6338466;22;20037;-89
2023/03/17 18:56:10;;;;;;;;;;;14.50;99.90;;;;;;6338393;22;19978;-89
2023/03/17 18:58:36;;;;;;;;;;;14.30;99.90;;;;;;6337311;22;19903;-89
2023/03/17 19:01:35;;;;;;;;;;;15.00;99.90;;;;;;6338648;22;19907;-90
2023/03/17 19:04:22;;;;;;;;;;;14.30;99.90;;;;;;6338560;22;19907;-88
2023/03/17 19:06:51;;;;;;;;;;;14.20;99.90;;;;;;6338456;22;19910;-89
2023/03/17 19:09:16;;;;;;;;;;;14.30;99.90;;;;;;6339052;22;19903;-90
2023/03/17 19:11:42;;;;;;;;;;;14.90;99.90;;;;;;6344203;22;19918;-87
2023/03/17 19:14:07;;;;;;;;;;;15.10;99.90;;;;;;6338627;22;19903;-89
2023/03/17 19:16:33;;;;;;;;;;;14.90;99.90;;;;;;6338028;22;19911;-88
2023/03/17 19:18:59;;;;;;;;;;;15.60;99.90;;;;;;6337667;22;19925;-89
2023/03/17 19:21:25;;;;;;;;;;;15.00;99.90;;;;;;6338497;22;19910;-88
2023/03/17 19:23:51;;;;;;;;;;;15.00;99.90;;;;;;6338326;22;19938;-89
2023/03/17 19:26:16;;;;;;;;;;;15.20;99.90;;;;;;6338220;22;19903;-89
2023/03/17 19:28:42;;;;;;;;;;;14.70;99.90;;;;;;6337510;22;19909;-89
2023/03/17 19:31:08;;;;;;;;;;;14.40;99.90;;;;;;6338264;22;19917;-88
2023/03/17 19:33:34;;;;;;;;;;;14.10;99.90;;;;;;6337918;22;19914;-88
2023/03/17 19:36:04;;;;;;;;;;;14.40;99.90;;;;;;6338716;22;19979;-88
2023/03/17 19:38:30;;;;;;;;;;;15.10;99.90;;;;;;6337729;22;19907;-88
2023/03/17 19:40:55;;;;;;;;;;;14.70;99.90;;;;;;6337956;22;19909;-88
2023/03/17 19:43:21;;;;;;;;;;;15.10;99.90;;;;;;6338246;22;20341;-89
2023/03/17 19:45:46;;;;;;;;;;;15.10;99.90;;;;;;6338172;22;20349;-90
2023/03/17 19:48:12;;;;;;;;;;;14.80;99.90;;;;;;6338096;22;19910;-89
2023/03/17 19:50:38;;;;;;;;;;;15.10;99.90;;;;;;6338280;22;19926;-89
2023/03/17 19:53:03;;;;;;;;;;;14.50;99.90;;;;;;6338566;22;19906;-89
2023/03/17 19:55:29;;;;;;;;;;;15.20;99.90;;;;;;6337109;22;19914;-88
2023/03/17 19:57:54;;;;;;;;;;;15.00;99.90;;;;;;6338550;22;19903;-89
2023/03/17 20:00:21;;;;;;;;;;;14.80;99.90;;;;;;6338510;22;19902;-89
2023/03/17 20:02:47;;;;;;;;;;;14.10;99.90;;;;;;6337682;22;19925;-88
2023/03/17 20:05:12;;;;;;;;;;;14.50;99.90;;;;;;6338148;22;19956;-89
2023/03/17 20:07:38;;;;;;;;;;;15.00;99.90;;;;;;6337626;22;19902;-88
2023/03/17 20:10:05;;;;;;;;;;;14.00;99.90;;;;;;6337680;22;19910;-89
2023/03/17 20:12:36;;;;;;;;;;;14.00;99.90;;;;;;6337908;22;19911;-90
2023/03/17 20:15:02;;;;;;;;;;;14.50;99.90;;;;;;6337917;22;19981;-88
2023/03/17 20:17:27;;;;;;;;;;;13.90;99.90;;;;;;6337926;22;19903;-88
2023/03/17 20:19:53;;;;;;;;;;;14.70;99.90;;;;;;6338211;22;19903;-89
2023/03/17 20:22:19;;;;;;;;;;;13.90;99.90;;;;;;6337399;22;19969;-89
2023/03/17 20:24:44;;;;;;;;;;;13.90;99.90;;;;;;6338034;22;19948;-89
2023/03/17 20:30:31;;;;;;;;;;;13.80;99.90;;;;;;6330605;22;19919;-89
2023/03/17 20:32:56;;;;;;;;;;;13.80;99.90;;;;;;6337893;22;20325;-88
2023/03/17 20:35:23;;;;;;;;;;;15.20;99.90;;;;;;6337861;22;19903;-87
2023/03/17 20:37:49;;;;;;;;;;;14.60;99.90;;;;;;6336787;22;19902;-88
2023/03/17 20:40:15;;;;;;;;;;;13.80;99.90;;;;;;6338282;22;19969;-87
2023/03/17 20:42:41;;;;;;;;;;;13.90;99.90;;;;;;6337669;22;20060;-88
2023/03/17 20:45:07;;;;;;;;;;;13.60;99.90;;;;;;6337463;22;19910;-87
2023/03/17 20:47:42;;;;;;;;;;;13.80;99.90;;;;;;6337726;22;19902;-88
2023/03/17 20:50:08;;;;;;;;;;;13.80;99.90;;;;;;6337519;22;19934;-88
2023/03/17 20:52:40;;;;;;;;;;;13.80;99.90;;;;;;6336859;22;19910;-88
2023/03/17 20:55:08;;;;;;;;;;;13.70;99.90;;;;;;6340203;22;20028;-88
2023/03/17 20:57:34;;;;;;;;;;;13.70;99.90;;;;;;6338945;22;20000;-88
2023/03/17 20:59:59;;;;;;;;;;;14.50;99.90;;;;;;6339925;22;19906;-88
2023/03/17 21:02:25;;;;;;;;;;;14.30;99.90;;;;;;6340104;22;20318;-87
2023/03/17 21:04:51;;;;;;;;;;;14.40;99.90;;;;;;6339128;22;19902;-87
2023/03/17 21:07:17;;;;;;;;;;;14.10;99.90;;;;;;6340008;22;19903;-87
2023/03/17 21:09:44;;;;;;;;;;;13.90;99.90;;;;;;6339561;22;19903;-88
2023/03/17 21:12:11;;;;;;;;;;;14.20;99.90;;;;;;6338815;22;19910;-87
2023/03/17 21:14:36;;;;;;;;;;;14.40;99.90;;;;;;6339507;22;19930;-88
2023/03/17 21:17:08;;;;;;;;;;;14.30;99.90;;;;;;6339867;22;19909;-87
2023/03/17 21:19:34;;;;;;;;;;;13.50;99.90;;;;;;6338226;22;19961;-88
2023/03/17 21:22:01;;;;;;;;;;;13.50;99.90;;;;;;6339883;22;19982;-87
2023/03/17 21:24:30;;;;;;;;;;;13.50;99.90;;;;;;6339445;22;19906;-87
2023/03/17 21:26:55;;;;;;;;;;;14.20;99.90;;;;;;6339105;22;20069;-88
2023/03/17 21:29:21;;;;;;;;;;;13.50;99.90;;;;;;6339461;22;19906;-88
2023/03/17 21:31:47;;;;;;;;;;;14.20;99.90;;;;;;6339934;22;20236;-88
2023/03/17 21:34:12;;;;;;;;;;;13.40;99.90;;;;;;6338887;22;19902;-88
2023/03/17 21:36:38;;;;;;;;;;;14.20;99.90;;;;;;6339302;22;19903;-87
2023/03/17 21:39:04;;;;;;;;;;;13.70;99.90;;;;;;6339774;22;20306;-87
2023/03/17 21:41:32;;;;;;;;;;;14.20;99.90;;;;;;6339371;22;19902;-88
2023/03/17 21:43:57;;;;;;;;;;;14.10;99.90;;;;;;6340639;22;20207;-87
2023/03/17 21:46:32;;;;;;;;;;;14.00;99.90;;;;;;6339442;22;19917;-88
2023/03/17 21:48:58;;;;;;;;;;;13.30;99.90;;;;;;6339185;22;19907;-87
2023/03/17 21:51:24;;;;;;;;;;;13.80;99.90;;;;;;6339106;22;19915;-88
2023/03/17 21:53:49;;;;;;;;;;;13.20;99.90;;;;;;6337716;22;19915;-87
2023/03/17 21:56:15;;;;;;;;;;;14.00;99.90;;;;;;6339275;22;19902;-88
2023/03/17 21:58:41;;;;;;;;;;;13.10;99.90;;;;;;6339099;22;19929;-87
2023/03/17 22:01:07;;;;;;;;;;;13.90;99.90;;;;;;6338358;22;20324;-88
2023/03/17 22:03:33;;;;;;;;;;;13.90;99.90;;;;;;6338121;22;19903;-88
2023/03/17 22:05:59;;;;;;;;;;;13.80;99.90;;;;;;6339500;22;19902;-87
2023/03/17 22:08:24;;;;;;;;;;;13.20;99.90;;;;;;6337867;22;19910;-88
2023/03/17 22:10:50;;;;;;;;;;;13.00;99.90;;;;;;6339136;22;19978;-88
2023/03/17 22:13:19;;;;;;;;;;;13.00;99.90;;;;;;6339518;22;19911;-88
2023/03/17 22:15:44;;;;;;;;;;;13.00;99.90;;;;;;6338166;22;20211;-88
2023/03/17 22:18:10;;;;;;;;;;;13.60;99.90;;;;;;6339437;22;19910;-88
2023/03/17 22:20:36;;;;;;;;;;;14.40;99.90;;;;;;6338829;22;19910;-88
2023/03/17 22:23:02;;;;;;;;;;;13.80;99.90;;;;;;6338661;22;20211;-88
2023/03/17 22:25:27;;;;;;;;;;;13.00;99.90;;;;;;6339027;22;19925;-88
2023/03/17 22:27:53;;;;;;;;;;;13.20;99.90;;;;;;6338923;22;19903;-88
2023/03/17 22:30:19;;;;;;;;;;;13.30;99.90;;;;;;6338686;22;19981;-89
2023/03/17 22:32:44;;;;;;;;;;;13.10;99.90;;;;;;6338337;22;19997;-88
2023/03/17 22:35:10;;;;;;;;;;;13.00;99.90;;;;;;6339086;22;19909;-88
2023/03/17 22:37:36;;;;;;;;;;;13.00;99.90;;;;;;6337738;22;20215;-89
2023/03/17 22:40:05;;;;;;;;;;;13.10;99.90;;;;;;6339125;22;19937;-88
2023/03/17 22:42:42;;;;;;;;;;;13.00;99.90;;;;;;6338952;22;19906;-88
2023/03/17 22:45:20;;;;;;;;;;;13.00;99.90;;;;;;6339114;22;19948;-89
2023/03/17 22:47:58;;;;;;;;;;;12.90;99.90;;;;;;6339628;22;19937;-90
2023/03/17 22:53:11;;;;;;;;;;;12.90;99.90;;;;;;6333821;22;20277;-90
2023/03/17 22:55:37;;;;;;;;;;;12.30;99.90;;;;;;6339265;22;19903;-88
2023/03/17 22:58:03;;;;;;;;;;;13.30;99.90;;;;;;6344369;22;19903;-89
2023/03/17 23:00:30;;;;;;;;;;;13.60;99.90;;;;;;6338999;22;20326;-89
2023/03/17 23:02:57;;;;;;;;;;;12.90;99.90;;;;;;6339133;22;19906;-88